< < Back
Terminal Aerodrome Forecast


Current Version              Previous Versions:   1  2  3  4  5  6  7  8  9  

Terminal Aerodrome Forecast

094
FTUS42 KILM 231728
TAFILM
TAF
KILM 231728Z 2318/2418 21010KT P6SM SCT040 BKN100
     FM240200 24003KT P6SM SCT050
     FM241500 22007KT P6SM FEW040 SCT140=

Latest METAR

209
SAUS70 KWBC 232100 RRM
MTRILM
METAR KILM 232053Z AUTO 18011KT 10SM SCT043 SCT055 31/23 A2996 RMK AO2
SLP145 T03110228 56014 PWINO


USA.gov is the U.S. government's official web portal to all federal, state and local government web resources and services.